Time;durP1;ratioP1;P1;durP2;ratioP2;P2;SDS_P1;SDS_P2;PMS_P1;PMS_P2;Temp;Humidity;BMP_temperature;BMP_pressure;BME280_temperature;BME280_humidity;BME280_pressure;Samples;Min_cycle;Max_cycle;Signal;HPM_P1;HPM_P2
2022/10/18 00:02:11;;;;;;;9.30;2.97;;;;;;;;;;5053815;28;20480;-61
2022/10/18 00:04:37;;;;;;;13.48;3.33;;;;;;;;;;5053029;28;20025;-61
2022/10/18 00:07:03;;;;;;;9.77;2.92;;;;;;;;;;5053460;28;20120;-61
2022/10/18 00:09:29;;;;;;;11.60;3.00;;;;;;;;;;5053266;28;20090;-61
2022/10/18 00:11:56;;;;;;;10.15;3.60;;;;;;;;;;5051978;28;20067;-61
2022/10/18 00:14:22;;;;;;;10.63;3.10;;;;;;;;;;5050704;28;20032;-61
2022/10/18 00:16:48;;;;;;;7.15;2.97;;;;;;;;;;5036836;28;20044;-61
2022/10/18 00:19:14;;;;;;;6.95;2.58;;;;;;;;;;5035049;28;20436;-61
2022/10/18 00:21:40;;;;;;;7.40;3.00;;;;;;;;;;5047650;28;20028;-61
2022/10/18 00:24:06;;;;;;;12.23;2.92;;;;;;;;;;5049138;28;20484;-61
2022/10/18 00:26:32;;;;;;;7.22;2.88;;;;;;;;;;5042427;28;20036;-61
2022/10/18 00:29:00;;;;;;;13.27;3.15;;;;;;;;;;5052907;28;20021;-61
2022/10/18 00:31:27;;;;;;;14.38;2.92;;;;;;;;;;5033847;28;20055;-61
2022/10/18 00:33:58;;;;;;;10.77;2.75;;;;;;;;;;5033823;28;20065;-61
2022/10/18 00:36:24;;;;;;;9.30;2.90;;;;;;;;;;5033795;28;20029;-61
2022/10/18 00:38:51;;;;;;;6.93;2.65;;;;;;;;;;5033791;28;20097;-61
2022/10/18 00:41:27;;;;;;;6.80;2.85;;;;;;;;;;5033019;28;20044;-61
2022/10/18 00:44:26;;;;;;;11.95;3.15;;;;;;;;;;5034365;28;20037;-61
2022/10/18 00:46:53;;;;;;;5.80;2.70;;;;;;;;;;5040429;28;20037;-61
2022/10/18 00:49:24;;;;;;;6.50;2.70;;;;;;;;;;5052810;28;20052;-61
2022/10/18 00:51:57;;;;;;;6.93;3.10;;;;;;;;;;5047945;28;20029;-61
2022/10/18 00:54:24;;;;;;;8.07;3.20;;;;;;;;;;5045152;28;20032;-61
2022/10/18 00:56:50;;;;;;;8.98;2.53;;;;;;;;;;5052226;28;20021;-61
2022/10/18 00:59:17;;;;;;;11.00;2.90;;;;;;;;;;5052590;28;20036;-61
2022/10/18 01:01:44;;;;;;;6.32;2.88;;;;;;;;;;5042687;28;20426;-61
2022/10/18 01:04:10;;;;;;;7.90;2.70;;;;;;;;;;5044124;28;20029;-61
2022/10/18 01:06:48;;;;;;;13.55;3.15;;;;;;;;;;5043097;28;20055;-61
2022/10/18 01:09:26;;;;;;;7.22;2.65;;;;;;;;;;5032873;28;20037;-61
2022/10/18 01:12:02;;;;;;;10.13;2.40;;;;;;;;;;5021443;28;20048;-61
2022/10/18 01:14:47;;;;;;;9.82;2.50;;;;;;;;;;5033016;28;20036;-61
2022/10/18 01:17:18;;;;;;;7.00;2.40;;;;;;;;;;5032719;28;20024;-61
2022/10/18 01:20:02;;;;;;;10.95;2.20;;;;;;;;;;5033771;28;20029;-61
2022/10/18 01:22:28;;;;;;;13.30;3.15;;;;;;;;;;5041215;28;20037;-61
2022/10/18 01:25:03;;;;;;;5.43;2.60;;;;;;;;;;5040835;28;20056;-61
2022/10/18 01:27:43;;;;;;;5.70;2.28;;;;;;;;;;5045323;28;20458;-61
2022/10/18 01:30:36;;;;;;;6.60;2.35;;;;;;;;;;5032601;28;20038;-61
2022/10/18 01:33:15;;;;;;;2.97;2.22;;;;;;;;;;5038985;28;20465;-61
2022/10/18 01:35:44;;;;;;;9.50;2.42;;;;;;;;;;5048208;28;20493;-61
2022/10/18 01:38:12;;;;;;;5.25;3.22;;;;;;;;;;5035019;28;20057;-61
2022/10/18 01:40:41;;;;;;;2.50;2.00;;;;;;;;;;5043046;28;20025;-61
2022/10/18 01:43:08;;;;;;;8.00;1.90;;;;;;;;;;5047385;28;20033;-61
2022/10/18 01:45:34;;;;;;;3.63;1.80;;;;;;;;;;5034548;28;20359;-61
2022/10/18 01:48:01;;;;;;;8.32;2.05;;;;;;;;;;5043543;28;20029;-61
2022/10/18 01:50:29;;;;;;;7.13;1.90;;;;;;;;;;5038486;28;20017;-61
2022/10/18 01:52:55;;;;;;;6.72;2.33;;;;;;;;;;5031367;28;20053;-61
2022/10/18 01:55:25;;;;;;;6.80;2.22;;;;;;;;;;5032491;28;20029;-61
2022/10/18 01:58:08;;;;;;;5.70;2.28;;;;;;;;;;5032419;28;20374;-61
2022/10/18 02:00:39;;;;;;;6.20;2.35;;;;;;;;;;5026557;28;20108;-61
2022/10/18 02:03:21;;;;;;;5.63;1.98;;;;;;;;;;5033300;28;20056;-61
2022/10/18 02:06:06;;;;;;;5.97;1.90;;;;;;;;;;5033312;28;20033;-61
2022/10/18 02:08:58;;;;;;;5.45;2.10;;;;;;;;;;5032967;28;20075;-61
2022/10/18 02:11:25;;;;;;;7.95;1.70;;;;;;;;;;5033958;28;20038;-61
2022/10/18 02:13:53;;;;;;;4.82;2.00;;;;;;;;;;5032996;28;20119;-61
2022/10/18 02:16:22;;;;;;;4.32;1.90;;;;;;;;;;5034234;28;20030;-61
2022/10/18 02:18:51;;;;;;;5.93;2.33;;;;;;;;;;5033617;28;20075;-61
2022/10/18 02:21:18;;;;;;;5.60;1.95;;;;;;;;;;5034853;28;20449;-61
2022/10/18 02:23:45;;;;;;;5.50;2.05;;;;;;;;;;5032970;28;20033;-61
2022/10/18 02:26:13;;;;;;;7.47;1.98;;;;;;;;;;5032722;28;20602;-61
2022/10/18 02:28:39;;;;;;;8.48;2.42;;;;;;;;;;5036946;28;20044;-61
2022/10/18 02:31:10;;;;;;;3.53;1.80;;;;;;;;;;5037678;28;20029;-61
2022/10/18 02:33:44;;;;;;;4.20;1.67;;;;;;;;;;5038546;28;20033;-61
2022/10/18 02:36:17;;;;;;;5.68;1.88;;;;;;;;;;5025761;28;20136;-61
2022/10/18 02:38:43;;;;;;;;;;;;;;;;;;5035742;28;20044;-61
2022/10/18 02:41:09;;;;;;;3.45;1.65;;;;;;;;;;5035348;28;20303;-61
2022/10/18 02:43:36;;;;;;;8.15;2.38;;;;;;;;;;5043828;28;20017;-61
2022/10/18 02:46:02;;;;;;;5.45;1.77;;;;;;;;;;5035575;28;20064;-61
2022/10/18 02:48:28;;;;;;;7.15;2.03;;;;;;;;;;5038503;28;20075;-61
2022/10/18 02:50:55;;;;;;;6.40;2.17;;;;;;;;;;5035729;28;20454;-61
2022/10/18 02:53:21;;;;;;;4.25;2.00;;;;;;;;;;5034647;28;20025;-61
2022/10/18 02:55:47;;;;;;;3.65;1.88;;;;;;;;;;5041418;28;20045;-61
2022/10/18 02:58:13;;;;;;;3.95;1.67;;;;;;;;;;5054966;28;20112;-61
2022/10/18 03:00:39;;;;;;;4.43;1.80;;;;;;;;;;5054837;28;20027;-61
2022/10/18 03:03:05;;;;;;;4.93;2.13;;;;;;;;;;5051345;28;20469;-61
2022/10/18 03:05:31;;;;;;;3.08;1.98;;;;;;;;;;5037693;28;20022;-61
2022/10/18 03:07:57;;;;;;;6.43;2.00;;;;;;;;;;5047815;28;20416;-61
2022/10/18 03:10:24;;;;;;;6.60;2.20;;;;;;;;;;5042007;28;20053;-61
2022/10/18 03:12:50;;;;;;;4.85;2.20;;;;;;;;;;5034865;28;20084;-61
2022/10/18 03:15:16;;;;;;;3.38;1.90;;;;;;;;;;5034063;28;20804;-61
2022/10/18 03:17:42;;;;;;;4.15;2.00;;;;;;;;;;5033916;28;20045;-61
2022/10/18 03:20:08;;;;;;;8.65;2.00;;;;;;;;;;5034854;28;20470;-61
2022/10/18 03:22:34;;;;;;;4.45;1.73;;;;;;;;;;5047775;28;20041;-61
2022/10/18 03:25:00;;;;;;;4.25;2.35;;;;;;;;;;5047821;28;20040;-61
2022/10/18 03:27:26;;;;;;;5.70;2.35;;;;;;;;;;5053665;28;20033;-61
2022/10/18 03:29:52;;;;;;;6.32;2.50;;;;;;;;;;5052728;28;20500;-61
2022/10/18 03:32:18;;;;;;;5.80;2.75;;;;;;;;;;5053483;28;20033;-61
2022/10/18 03:34:44;;;;;;;8.43;3.05;;;;;;;;;;5052970;28;20088;-61
2022/10/18 03:37:11;;;;;;;16.10;2.88;;;;;;;;;;5039984;28;20064;-61
2022/10/18 03:39:37;;;;;;;12.13;3.30;;;;;;;;;;5044100;28;20048;-61
2022/10/18 03:42:03;;;;;;;25.70;3.78;;;;;;;;;;5051342;28;20039;-61
2022/10/18 03:44:29;;;;;;;17.50;3.83;;;;;;;;;;5040942;28;20017;-61
2022/10/18 03:46:55;;;;;;;9.77;3.13;;;;;;;;;;5034592;28;20532;-61
2022/10/18 03:49:21;;;;;;;13.30;3.33;;;;;;;;;;5034907;28;20025;-61
2022/10/18 03:51:47;;;;;;;15.90;3.35;;;;;;;;;;5033626;28;20026;-61
2022/10/18 03:54:13;;;;;;;21.30;3.80;;;;;;;;;;5033760;28;20424;-61
2022/10/18 03:56:39;;;;;;;28.02;3.95;;;;;;;;;;5034398;28;20039;-61
2022/10/18 03:59:05;;;;;;;27.35;4.00;;;;;;;;;;5034769;28;20034;-61
2022/10/18 04:01:31;;;;;;;32.25;3.83;;;;;;;;;;5029870;28;20036;-61
2022/10/18 04:03:57;;;;;;;23.80;3.58;;;;;;;;;;5028778;28;20489;-61
2022/10/18 04:06:24;;;;;;;35.13;3.83;;;;;;;;;;5032246;28;20224;-61
2022/10/18 04:08:50;;;;;;;63.30;4.55;;;;;;;;;;5033234;28;20042;-61
2022/10/18 04:11:16;;;;;;;29.48;3.85;;;;;;;;;;5032035;28;20814;-61
2022/10/18 04:13:42;;;;;;;48.67;4.20;;;;;;;;;;5032330;28;20030;-61
2022/10/18 04:16:08;;;;;;;43.40;4.13;;;;;;;;;;5032677;28;20475;-61
2022/10/18 04:18:34;;;;;;;27.58;4.07;;;;;;;;;;5032697;28;20099;-61
2022/10/18 04:21:00;;;;;;;20.98;3.00;;;;;;;;;;5032608;28;20029;-61
2022/10/18 04:23:26;;;;;;;13.70;2.80;;;;;;;;;;5033191;28;20038;-61
2022/10/18 04:25:52;;;;;;;12.52;2.60;;;;;;;;;;5033864;28;20087;-61
2022/10/18 04:28:18;;;;;;;8.35;2.83;;;;;;;;;;5034054;28;20032;-61
2022/10/18 04:30:48;;;;;;;25.98;2.92;;;;;;;;;;5031607;28;20048;-61
2022/10/18 04:33:15;;;;;;;15.90;2.90;;;;;;;;;;5031415;28;20120;-61
2022/10/18 04:35:41;;;;;;;13.55;2.83;;;;;;;;;;5030006;28;20033;-61
2022/10/18 04:38:08;;;;;;;7.63;2.40;;;;;;;;;;5032861;28;20029;-61
2022/10/18 04:40:34;;;;;;;3.45;2.15;;;;;;;;;;5032696;28;20033;-61
2022/10/18 04:43:00;;;;;;;13.30;2.80;;;;;;;;;;5032694;28;20086;-61
2022/10/18 04:45:26;;;;;;;21.95;2.95;;;;;;;;;;5032534;28;20048;-61
2022/10/18 04:47:52;;;;;;;13.18;3.38;;;;;;;;;;5046160;28;20029;-61
2022/10/18 04:50:18;;;;;;;11.63;2.95;;;;;;;;;;5033800;28;20350;-61
2022/10/18 04:52:44;;;;;;;18.25;3.10;;;;;;;;;;5034637;28;20018;-61
2022/10/18 04:55:10;;;;;;;4.50;2.85;;;;;;;;;;5036026;28;20037;-61
2022/10/18 04:57:36;;;;;;;18.15;2.92;;;;;;;;;;5038836;28;20039;-61
2022/10/18 05:00:03;;;;;;;11.00;2.50;;;;;;;;;;5042294;28;20151;-61
2022/10/18 05:02:29;;;;;;;10.63;2.90;;;;;;;;;;5039202;28;20495;-61
2022/10/18 05:04:55;;;;;;;5.93;2.63;;;;;;;;;;5040467;28;20076;-61
2022/10/18 05:07:21;;;;;;;6.30;2.63;;;;;;;;;;5031071;28;20029;-60
2022/10/18 05:09:47;;;;;;;6.80;2.83;;;;;;;;;;5035772;28;20026;-61
2022/10/18 05:12:14;;;;;;;6.28;2.78;;;;;;;;;;5033665;28;20025;-61
2022/10/18 05:14:40;;;;;;;11.70;3.28;;;;;;;;;;5040933;28;20431;-61
2022/10/18 05:17:06;;;;;;;14.82;3.20;;;;;;;;;;5034683;28;20029;-61
2022/10/18 05:19:32;;;;;;;18.15;3.15;;;;;;;;;;5033977;28;20429;-61
2022/10/18 05:21:58;;;;;;;21.10;3.63;;;;;;;;;;5037422;28;20025;-61
2022/10/18 05:24:24;;;;;;;23.42;3.45;;;;;;;;;;5038777;28;20079;-61
2022/10/18 05:26:50;;;;;;;13.10;2.92;;;;;;;;;;5036397;28;20087;-61
2022/10/18 05:29:16;;;;;;;14.48;3.13;;;;;;;;;;5035767;28;20034;-60
2022/10/18 05:31:42;;;;;;;10.40;2.75;;;;;;;;;;5034011;28;20076;-61
2022/10/18 05:34:08;;;;;;;7.22;2.70;;;;;;;;;;5031412;28;20021;-61
2022/10/18 05:36:34;;;;;;;10.15;3.20;;;;;;;;;;5031687;28;20139;-61
2022/10/18 05:39:03;;;;;;;7.22;3.03;;;;;;;;;;5038996;28;20032;-61
2022/10/18 05:41:29;;;;;;;8.27;3.05;;;;;;;;;;5028212;28;20033;-60
2022/10/18 05:43:55;;;;;;;4.85;2.92;;;;;;;;;;5028793;28;20029;-61
2022/10/18 05:46:22;;;;;;;14.23;3.17;;;;;;;;;;5040969;28;20033;-60
2022/10/18 05:48:51;;;;;;;14.68;4.85;;;;;;;;;;5040604;28;20159;-60
2022/10/18 05:51:17;;;;;;;17.42;3.90;;;;;;;;;;5031235;28;20498;-61
2022/10/18 05:53:43;;;;;;;13.90;4.38;;;;;;;;;;5030817;28;20479;-60
2022/10/18 05:56:10;;;;;;;26.88;4.30;;;;;;;;;;5035664;28;20040;-60
2022/10/18 05:58:36;;;;;;;39.97;5.10;;;;;;;;;;5033640;28;20049;-60
2022/10/18 06:01:03;;;;;;;38.78;5.32;;;;;;;;;;5037815;28;20030;-60
2022/10/18 06:03:29;;;;;;;22.08;4.90;;;;;;;;;;5041628;28;20059;-61
2022/10/18 06:06:02;;;;;;;39.88;5.78;;;;;;;;;;5042016;28;20501;-61
2022/10/18 06:08:28;;;;;;;24.88;4.88;;;;;;;;;;5031968;28;20120;-61
2022/10/18 06:10:54;;;;;;;40.83;6.07;;;;;;;;;;5039901;28;20091;-61
2022/10/18 06:13:21;;;;;;;35.33;6.60;;;;;;;;;;5038260;28;20101;-61
2022/10/18 06:15:47;;;;;;;21.98;5.97;;;;;;;;;;5040426;28;20388;-61
2022/10/18 06:18:13;;;;;;;21.42;6.43;;;;;;;;;;5037716;28;20493;-61
2022/10/18 06:20:39;;;;;;;26.90;6.40;;;;;;;;;;5036812;28;20029;-61
2022/10/18 06:23:05;;;;;;;23.48;6.63;;;;;;;;;;5033253;28;20112;-61
2022/10/18 06:25:31;;;;;;;20.05;6.53;;;;;;;;;;5039394;28;20079;-61
2022/10/18 06:27:57;;;;;;;20.83;7.70;;;;;;;;;;5036254;28;20033;-61
2022/10/18 06:30:23;;;;;;;26.52;6.80;;;;;;;;;;5038716;28;20113;-61
2022/10/18 06:32:49;;;;;;;25.08;7.35;;;;;;;;;;5038244;28;20052;-60
2022/10/18 06:35:15;;;;;;;22.17;7.25;;;;;;;;;;5037698;28;20013;-61
2022/10/18 06:37:41;;;;;;;30.45;7.53;;;;;;;;;;5035332;28;20021;-61
2022/10/18 06:40:08;;;;;;;19.27;7.75;;;;;;;;;;5039818;28;20082;-61
2022/10/18 06:42:34;;;;;;;19.23;7.68;;;;;;;;;;5034382;28;20038;-61
2022/10/18 06:45:00;;;;;;;23.42;8.05;;;;;;;;;;5037386;28;20044;-61
2022/10/18 06:47:26;;;;;;;24.38;8.00;;;;;;;;;;5036649;28;20029;-61
2022/10/18 06:49:52;;;;;;;19.23;7.82;;;;;;;;;;5034790;28;20100;-61
2022/10/18 06:52:21;;;;;;;40.22;8.07;;;;;;;;;;5035711;28;20068;-61
2022/10/18 06:54:47;;;;;;;25.98;8.40;;;;;;;;;;5036139;28;20017;-61
2022/10/18 06:57:13;;;;;;;16.42;7.35;;;;;;;;;;5035588;28;20030;-61
2022/10/18 06:59:39;;;;;;;24.05;7.88;;;;;;;;;;5035647;28;20037;-61
2022/10/18 07:02:05;;;;;;;23.42;8.73;;;;;;;;;;5035737;28;20458;-61
2022/10/18 07:04:31;;;;;;;33.53;8.80;;;;;;;;;;5035696;28;20028;-61
2022/10/18 07:06:57;;;;;;;37.92;9.38;;;;;;;;;;5035738;28;20038;-61
2022/10/18 07:09:24;;;;;;;23.17;9.30;;;;;;;;;;5035469;28;20120;-61
2022/10/18 07:11:51;;;;;;;31.45;9.55;;;;;;;;;;5035511;28;20069;-61
2022/10/18 07:14:17;;;;;;;30.33;9.93;;;;;;;;;;5034960;28;20036;-61
2022/10/18 07:16:43;;;;;;;23.33;8.57;;;;;;;;;;5035651;28;20017;-61
2022/10/18 07:19:11;;;;;;;23.98;9.52;;;;;;;;;;5035483;28;20037;-61
2022/10/18 07:21:37;;;;;;;18.67;9.32;;;;;;;;;;5035235;28;20121;-61
2022/10/18 07:24:03;;;;;;;22.17;10.25;;;;;;;;;;5035424;28;20037;-61
2022/10/18 07:26:32;;;;;;;21.08;9.77;;;;;;;;;;5035089;28;20037;-61
2022/10/18 07:29:05;;;;;;;20.70;9.88;;;;;;;;;;5034945;28;20534;-61
2022/10/18 07:31:32;;;;;;;21.33;10.18;;;;;;;;;;5035176;28;20409;-61
2022/10/18 07:33:58;;;;;;;19.73;10.20;;;;;;;;;;5035150;28;20056;-61
2022/10/18 07:36:24;;;;;;;18.48;10.23;;;;;;;;;;5034931;28;20548;-61
2022/10/18 07:38:51;;;;;;;22.92;10.68;;;;;;;;;;5035104;28;20027;-61
2022/10/18 07:41:17;;;;;;;22.90;11.93;;;;;;;;;;5034775;28;20025;-61
2022/10/18 07:43:45;;;;;;;24.27;11.93;;;;;;;;;;5034720;28;20045;-61
2022/10/18 07:46:11;;;;;;;29.52;11.95;;;;;;;;;;5034611;28;20033;-61
2022/10/18 07:48:37;;;;;;;26.67;13.23;;;;;;;;;;5034814;28;20030;-61
2022/10/18 07:51:04;;;;;;;29.08;12.48;;;;;;;;;;5034579;28;20048;-61
2022/10/18 07:53:30;;;;;;;22.77;11.75;;;;;;;;;;5034582;28;20033;-61
2022/10/18 07:56:00;;;;;;;23.02;11.63;;;;;;;;;;5034598;28;20049;-61
2022/10/18 07:58:27;;;;;;;21.67;10.98;;;;;;;;;;5034263;28;20413;-61
2022/10/18 08:00:53;;;;;;;27.48;12.57;;;;;;;;;;5034797;28;20017;-61
2022/10/18 08:03:19;;;;;;;18.95;11.35;;;;;;;;;;5034628;28;20034;-61
2022/10/18 08:05:51;;;;;;;24.52;12.02;;;;;;;;;;5034565;28;20037;-61
2022/10/18 08:08:18;;;;;;;26.35;11.77;;;;;;;;;;5034436;28;20102;-61
2022/10/18 08:10:44;;;;;;;23.77;11.55;;;;;;;;;;5034538;28;20075;-61
2022/10/18 08:13:10;;;;;;;19.63;10.65;;;;;;;;;;5034241;28;20083;-62
2022/10/18 08:15:36;;;;;;;21.77;11.10;;;;;;;;;;5034568;28;20029;-61
2022/10/18 08:18:02;;;;;;;19.10;10.80;;;;;;;;;;5034462;28;20025;-61
2022/10/18 08:20:29;;;;;;;16.98;10.52;;;;;;;;;;5034343;28;20083;-62
2022/10/18 08:22:55;;;;;;;22.35;10.13;;;;;;;;;;5034138;28;20040;-61
2022/10/18 08:25:21;;;;;;;20.58;10.27;;;;;;;;;;5033393;28;20044;-62
2022/10/18 08:27:47;;;;;;;19.60;10.60;;;;;;;;;;5033978;28;20124;-61
2022/10/18 08:30:13;;;;;;;17.48;10.45;;;;;;;;;;5034166;28;20088;-62
2022/10/18 08:32:39;;;;;;;17.38;9.18;;;;;;;;;;5033948;28;20033;-61
2022/10/18 08:35:06;;;;;;;18.70;9.88;;;;;;;;;;5034079;28;20147;-61
2022/10/18 08:37:32;;;;;;;17.00;9.30;;;;;;;;;;5033787;28;20034;-61
2022/10/18 08:39:58;;;;;;;15.15;9.63;;;;;;;;;;5033472;28;20037;-61
2022/10/18 08:42:39;;;;;;;16.63;9.73;;;;;;;;;;5033266;28;20032;-61
2022/10/18 08:45:06;;;;;;;18.60;8.93;;;;;;;;;;5033835;28;20033;-61
2022/10/18 08:47:52;;;;;;;14.40;9.52;;;;;;;;;;5033583;28;20025;-61
2022/10/18 08:50:23;;;;;;;16.10;9.38;;;;;;;;;;5033635;28;20160;-61
2022/10/18 08:52:53;;;;;;;15.52;9.07;;;;;;;;;;5033836;28;20049;-62
2022/10/18 08:55:19;;;;;;;12.30;8.35;;;;;;;;;;5033168;28;20068;-61
2022/10/18 08:57:46;;;;;;;16.60;8.60;;;;;;;;;;5033369;28;20029;-61
2022/10/18 09:00:16;;;;;;;12.52;8.25;;;;;;;;;;5033527;28;20151;-61
2022/10/18 09:03:01;;;;;;;13.02;8.00;;;;;;;;;;5033505;28;20619;-63
2022/10/18 09:05:45;;;;;;;13.07;9.05;;;;;;;;;;5033186;28;20124;-61
2022/10/18 09:08:30;;;;;;;19.30;11.88;;;;;;;;;;5033328;28;20492;-61
2022/10/18 09:10:56;;;;;;;19.02;12.32;;;;;;;;;;5032902;28;20096;-61
2022/10/18 09:13:36;;;;;;;25.17;12.98;;;;;;;;;;5033235;28;20037;-61
2022/10/18 09:16:07;;;;;;;21.75;12.20;;;;;;;;;;5033098;28;20049;-61
2022/10/18 09:18:33;;;;;;;22.52;12.75;;;;;;;;;;5032894;28;20033;-62
2022/10/18 09:21:01;;;;;;;21.35;11.20;;;;;;;;;;5033215;28;20030;-61
2022/10/18 09:23:42;;;;;;;16.73;9.77;;;;;;;;;;5032923;28;20034;-61
2022/10/18 09:26:19;;;;;;;16.98;9.27;;;;;;;;;;5032881;28;20044;-62
2022/10/18 09:28:45;;;;;;;20.70;10.35;;;;;;;;;;5033045;28;20091;-61
2022/10/18 09:31:16;;;;;;;17.55;10.57;;;;;;;;;;5033069;28;20034;-62
2022/10/18 09:33:42;;;;;;;20.17;10.90;;;;;;;;;;5032886;28;20037;-61
2022/10/18 09:36:10;;;;;;;20.85;10.82;;;;;;;;;;5033147;28;20053;-61
2022/10/18 09:38:47;;;;;;;23.17;10.93;;;;;;;;;;5032511;28;20133;-61
2022/10/18 09:41:18;;;;;;;17.60;10.05;;;;;;;;;;5033076;28;20033;-62
2022/10/18 09:43:50;;;;;;;22.48;10.38;;;;;;;;;;5032830;28;20037;-61
2022/10/18 09:46:18;;;;;;;22.40;11.35;;;;;;;;;;5032915;28;20406;-61
2022/10/18 09:49:05;;;;;;;19.10;10.75;;;;;;;;;;5032808;28;20030;-62
2022/10/18 09:51:34;;;;;;;17.20;10.45;;;;;;;;;;5032730;28;20095;-61
2022/10/18 09:54:00;;;;;;;22.63;11.05;;;;;;;;;;5032507;28;20441;-62
2022/10/18 09:56:32;;;;;;;20.60;11.38;;;;;;;;;;5032732;28;20049;-62
2022/10/18 09:58:59;;;;;;;21.97;10.60;;;;;;;;;;5032521;28;20037;-61
2022/10/18 10:01:26;;;;;;;21.40;11.23;;;;;;;;;;5032695;28;20271;-62
2022/10/18 10:03:52;;;;;;;19.48;10.80;;;;;;;;;;5032781;28;20037;-61
2022/10/18 10:06:26;;;;;;;15.90;9.68;;;;;;;;;;5032620;28;20026;-61
2022/10/18 10:09:06;;;;;;;19.48;11.30;;;;;;;;;;5032448;28;20041;-61
2022/10/18 10:11:34;;;;;;;24.63;10.70;;;;;;;;;;5031906;28;20037;-62
2022/10/18 10:14:08;;;;;;;16.95;10.98;;;;;;;;;;5032771;28;20081;-62
2022/10/18 10:16:42;;;;;;;21.50;10.48;;;;;;;;;;5032428;28;20033;-62
2022/10/18 10:19:14;;;;;;;27.35;10.20;;;;;;;;;;5032636;28;20030;-62
2022/10/18 10:21:40;;;;;;;21.23;10.88;;;;;;;;;;5032441;28;20485;-62
2022/10/18 10:24:06;;;;;;;18.77;10.32;;;;;;;;;;5032479;28;20059;-61
2022/10/18 10:26:39;;;;;;;17.80;9.98;;;;;;;;;;5032350;28;20025;-61
2022/10/18 10:29:05;;;;;;;;;;;;;;;;;;5033081;28;20450;-61
2022/10/18 10:31:31;;;;;;;22.35;8.95;;;;;;;;;;5032458;28;19906;-62
2022/10/18 10:34:00;;;;;;;18.90;9.65;;;;;;;;;;5032398;28;20029;-62
2022/10/18 10:36:27;;;;;;;19.83;8.70;;;;;;;;;;5031974;28;20037;-62
2022/10/18 10:39:25;;;;;;;17.35;8.85;;;;;;;;;;5032343;28;20374;-62
2022/10/18 10:41:53;;;;;;;21.77;9.38;;;;;;;;;;5029876;28;20229;-61
2022/10/18 10:44:20;;;;;;;16.02;8.05;;;;;;;;;;5030147;28;20098;-62
2022/10/18 10:46:47;;;;;;;13.13;7.50;;;;;;;;;;5029991;28;20029;-62
2022/10/18 10:49:46;;;;;;;16.10;8.02;;;;;;;;;;5033314;28;20145;-62
2022/10/18 10:52:19;;;;;;;11.93;7.60;;;;;;;;;;4994080;28;20038;-62
2022/10/18 10:54:46;;;;;;;17.25;7.53;;;;;;;;;;4994311;28;20058;-62
2022/10/18 10:57:12;;;;;;;13.98;7.68;;;;;;;;;;4994226;28;20039;-61
2022/10/18 10:59:41;;;;;;;20.27;9.13;;;;;;;;;;4994051;28;20045;-62
2022/10/18 11:02:30;;;;;;;20.88;9.27;;;;;;;;;;4994316;28;20061;-62
2022/10/18 11:05:14;;;;;;;17.05;7.57;;;;;;;;;;4989099;28;20049;-62
2022/10/18 11:07:42;;;;;;;17.80;8.00;;;;;;;;;;4993428;28;20054;-62
2022/10/18 11:10:11;;;;;;;15.48;6.97;;;;;;;;;;4993947;28;20038;-62
2022/10/18 11:12:44;;;;;;;14.60;7.80;;;;;;;;;;4977714;28;20116;-62
2022/10/18 11:15:10;;;;;;;16.92;8.15;;;;;;;;;;4993925;28;20100;-62
2022/10/18 11:17:39;;;;;;;17.17;8.07;;;;;;;;;;5005317;28;20038;-62
2022/10/18 11:20:11;;;;;;;17.23;8.73;;;;;;;;;;5013357;28;20042;-62
2022/10/18 11:22:53;;;;;;;15.63;7.57;;;;;;;;;;5012619;28;20049;-62
2022/10/18 11:25:21;;;;;;;13.63;8.10;;;;;;;;;;5013476;28;20482;-62
2022/10/18 11:27:47;;;;;;;15.95;7.50;;;;;;;;;;5024427;28;20127;-62
2022/10/18 11:30:32;;;;;;;15.00;8.40;;;;;;;;;;5035208;28;20025;-62
2022/10/18 11:33:05;;;;;;;13.25;7.32;;;;;;;;;;5035249;28;20021;-61
2022/10/18 11:35:50;;;;;;;13.07;7.25;;;;;;;;;;5034553;28;20401;-62
2022/10/18 11:38:37;;;;;;;15.80;7.13;;;;;;;;;;5035273;28;20037;-62
2022/10/18 11:41:09;;;;;;;15.05;7.88;;;;;;;;;;5035027;28;20048;-62
2022/10/18 11:43:43;;;;;;;13.10;7.67;;;;;;;;;;5034817;28;20036;-62
2022/10/18 11:46:10;;;;;;;17.48;7.90;;;;;;;;;;5035083;28;20272;-62
2022/10/18 11:48:54;;;;;;;14.02;7.97;;;;;;;;;;5034546;28;20030;-62
2022/10/18 11:51:27;;;;;;;17.92;7.75;;;;;;;;;;5034914;28;20040;-62
2022/10/18 11:54:05;;;;;;;12.40;7.25;;;;;;;;;;5034840;28;20524;-62
2022/10/18 11:56:42;;;;;;;18.27;8.13;;;;;;;;;;5034834;28;20033;-62
2022/10/18 11:59:22;;;;;;;12.63;7.30;;;;;;;;;;5033627;28;20033;-62
2022/10/18 12:02:03;;;;;;;15.70;7.35;;;;;;;;;;5034404;28;20037;-62
2022/10/18 12:04:34;;;;;;;15.98;7.38;;;;;;;;;;5034382;28;20026;-62
2022/10/18 12:07:01;;;;;;;14.00;7.47;;;;;;;;;;5034825;28;20151;-62
2022/10/18 12:09:27;;;;;;;16.77;7.75;;;;;;;;;;5034495;28;20036;-62
2022/10/18 12:11:55;;;;;;;16.52;8.20;;;;;;;;;;5034147;28;20409;-62
2022/10/18 12:14:34;;;;;;;22.67;7.50;;;;;;;;;;5034520;28;20025;-62
2022/10/18 12:17:04;;;;;;;18.88;7.32;;;;;;;;;;5034424;28;20505;-62
2022/10/18 12:19:32;;;;;;;18.42;7.28;;;;;;;;;;5033990;28;20070;-62
2022/10/18 12:22:05;;;;;;;17.20;7.40;;;;;;;;;;5034229;28;20440;-62
2022/10/18 12:24:32;;;;;;;16.40;8.25;;;;;;;;;;5034072;28;20120;-62
2022/10/18 12:26:59;;;;;;;16.27;8.20;;;;;;;;;;5034167;28;20476;-62
2022/10/18 12:29:25;;;;;;;16.73;7.78;;;;;;;;;;5034134;28;20037;-62
2022/10/18 12:31:54;;;;;;;16.23;7.80;;;;;;;;;;5033987;28;20472;-62
2022/10/18 12:34:20;;;;;;;17.83;7.93;;;;;;;;;;5033775;28;20061;-62
2022/10/18 12:36:49;;;;;;;16.90;8.02;;;;;;;;;;5033743;28;20076;-62
2022/10/18 12:39:19;;;;;;;22.05;8.15;;;;;;;;;;5033971;28;20037;-62
2022/10/18 12:41:47;;;;;;;17.70;7.90;;;;;;;;;;5033844;28;20029;-62
2022/10/18 12:44:16;;;;;;;12.52;8.23;;;;;;;;;;5033954;28;20053;-62
2022/10/18 12:46:46;;;;;;;15.80;8.65;;;;;;;;;;5033679;28;20037;-62
2022/10/18 12:49:14;;;;;;;16.08;7.78;;;;;;;;;;5033388;28;20033;-62
2022/10/18 12:51:53;;;;;;;20.48;8.63;;;;;;;;;;5033667;28;20033;-62
2022/10/18 12:54:23;;;;;;;17.48;8.43;;;;;;;;;;5033746;28;20397;-62
2022/10/18 12:56:49;;;;;;;17.92;8.50;;;;;;;;;;5032281;28;20075;-62
2022/10/18 12:59:15;;;;;;;16.17;6.90;;;;;;;;;;5033598;28;20383;-62
2022/10/18 13:01:54;;;;;;;17.40;6.93;;;;;;;;;;5033124;28;20029;-62
2022/10/18 13:04:32;;;;;;;19.65;8.23;;;;;;;;;;5033553;28;20037;-62
2022/10/18 13:06:58;;;;;;;15.05;7.90;;;;;;;;;;5033427;28;20085;-62
2022/10/18 13:09:24;;;;;;;13.35;8.20;;;;;;;;;;5033585;28;20041;-62
2022/10/18 13:11:53;;;;;;;16.45;8.00;;;;;;;;;;5032618;28;20049;-61
2022/10/18 13:14:19;;;;;;;10.65;6.35;;;;;;;;;;5033433;28;20056;-62
2022/10/18 13:16:48;;;;;;;15.18;6.97;;;;;;;;;;5032737;28;20040;-62
2022/10/18 13:19:14;;;;;;;17.88;7.07;;;;;;;;;;5033208;28;20504;-62
2022/10/18 13:22:10;;;;;;;13.70;7.07;;;;;;;;;;5032998;28;20072;-62
2022/10/18 13:24:39;;;;;;;11.48;6.55;;;;;;;;;;5033121;28;20044;-62
2022/10/18 13:27:23;;;;;;;17.15;7.05;;;;;;;;;;5033171;28;20055;-62
2022/10/18 13:29:53;;;;;;;14.55;7.15;;;;;;;;;;5032974;28;20065;-62
2022/10/18 13:32:37;;;;;;;16.25;7.53;;;;;;;;;;5032807;28;20030;-62
2022/10/18 13:35:04;;;;;;;16.88;7.45;;;;;;;;;;5032850;28;20033;-62
2022/10/18 13:37:30;;;;;;;13.68;7.53;;;;;;;;;;5033295;28;20021;-62
2022/10/18 13:40:22;;;;;;;11.93;6.88;;;;;;;;;;5032647;28;20029;-62
2022/10/18 13:42:48;;;;;;;15.55;6.93;;;;;;;;;;5031365;28;20401;-62
2022/10/18 13:45:32;;;;;;;16.75;7.65;;;;;;;;;;5032533;28;20025;-62
2022/10/18 13:48:18;;;;;;;20.23;6.90;;;;;;;;;;5032627;28;20025;-62
2022/10/18 13:50:45;;;;;;;15.93;7.00;;;;;;;;;;5032100;28;20076;-62
2022/10/18 13:53:20;;;;;;;11.88;6.00;;;;;;;;;;5032856;28;20104;-62
2022/10/18 13:56:05;;;;;;;12.48;6.68;;;;;;;;;;5028965;28;20129;-62
2022/10/18 13:58:31;;;;;;;12.57;6.78;;;;;;;;;;5028846;28;20036;-62
2022/10/18 14:01:03;;;;;;;17.13;6.68;;;;;;;;;;5027145;28;20064;-62
2022/10/18 14:03:29;;;;;;;16.60;6.68;;;;;;;;;;5032045;28;20057;-62
2022/10/18 14:05:55;;;;;;;15.90;6.45;;;;;;;;;;5031671;28;20547;-62
2022/10/18 14:08:28;;;;;;;11.82;6.95;;;;;;;;;;5032029;28;20381;-62
2022/10/18 14:11:05;;;;;;;19.88;7.43;;;;;;;;;;5029420;28;20402;-62
2022/10/18 14:13:39;;;;;;;11.00;6.43;;;;;;;;;;5029230;28;20541;-62
2022/10/18 14:16:08;;;;;;;17.77;6.82;;;;;;;;;;5031514;28;20033;-62
2022/10/18 14:18:36;;;;;;;17.65;6.90;;;;;;;;;;5029622;28;20520;-62
2022/10/18 14:21:07;;;;;;;11.60;6.63;;;;;;;;;;5031911;28;20037;-62
2022/10/18 14:23:40;;;;;;;14.63;6.85;;;;;;;;;;5031947;28;20029;-62
2022/10/18 14:26:17;;;;;;;15.02;7.00;;;;;;;;;;5035709;28;20104;-62
2022/10/18 14:28:43;;;;;;;12.50;6.78;;;;;;;;;;5033605;28;20526;-62
2022/10/18 14:31:13;;;;;;;14.63;7.85;;;;;;;;;;5036021;28;20029;-62
2022/10/18 14:33:44;;;;;;;13.20;6.28;;;;;;;;;;5033343;28;20492;-62
2022/10/18 14:36:13;;;;;;;15.23;8.68;;;;;;;;;;5035804;28;20049;-62
2022/10/18 14:38:48;;;;;;;18.10;6.55;;;;;;;;;;5035629;28;20057;-62
2022/10/18 14:41:21;;;;;;;20.38;7.03;;;;;;;;;;5035672;28;20025;-62
2022/10/18 14:43:48;;;;;;;15.77;8.23;;;;;;;;;;5032499;28;20021;-62
2022/10/18 14:46:19;;;;;;;19.33;8.15;;;;;;;;;;5035554;28;20505;-62